x

West Santa Barbara 38 Nm West Of Santa Barbara, Ca (46054) Wave Buoy

10:50 - Thu 25th Dec 2014 All times are PST. -8 hours from GMT.

  • Sig Wave height 14.1ft
  • Swell Direction
  • Peak Period 13s
  • Average Period 9s
  • Wind
    27mph, 31mph gusts
  • Sea Temp 61°f
  • Aire Temp 55°f
  • Sea Pressure 1014.3mb
  • West Santa Barbara  38 Nm West Of Santa Barbara, Ca
  • West Santa Barbara  38 Nm West Of Santa Barbara, Ca

More Historic Weather Station data

Upgrade to MSW Pro to gain access to the past 30 days of data for over 8000 Wavebouys and Weather Stations around the globe.

Join Pro

Comparision Forecast

View Surf forecast
   
jue 12/25 10:50 14ft 13s 9s 27 31 mph 1014.3mb 61f 55f
9:50 15ft 11s 9s 27 34 mph 1014.2mb 61f 55f
8:50 15ft 11s 9s 31 38 mph 1013.6mb 61f 54f
7:50 15.5ft 12s 9s 31 36 mph 1013.3mb 61f 55f
6:50 14ft 14s 9s 31 38 mph 1012.6mb 62f 55f
5:50 13.5ft 10s 9s 29 34 mph 1012.2mb 62f 55f
4:50 13.5ft 10s 8s 27 34 mph 1012mb 62f 55f
3:50 13ft 10s 8s 27 34 mph 1012.4mb 62f 55f
2:50 14ft 10s 9s 29 38 mph 1012.6mb 62f 56f
1:50 14.5ft 10s 8s 25 29 mph 1012.3mb 61f 57f
12:50 14ft 10s 8s 29 38 mph 1011.6mb 61f 58f
mié 12/24 11:50 13ft 16s 8s 31 40 mph 1011.9mb 61f 59f
10:50 12ft 8s 7s 36 43 mph 1011.8mb 61f 60f
9:50 11ft 15s 7s 34 43 mph 1012.8mb 61f 59f
8:50 10ft 17s 7s 29 36 mph 1013.1mb 61f 60f
7:50 11.5ft 16s 8s 25 31 mph 1013.3mb 61f 61f
6:50 9ft 17s 7s 27 34 mph 1013.1mb 61f 61f
5:50 9ft 17s 7s 25 31 mph 1013mb 60f 61f
4:50 8.5ft 17s 8s 27 34 mph 1013.1mb 60f 61f
3:50 10ft 16s 8s 16 20 mph 1013.3mb 60f 60f
2:50 8.5ft 17s 7s 27 34 mph 1014.2mb 61f 61f
1:50 10ft 16s 9s 22 27 mph 1014.5mb 62f 61f
12:50 9.5ft 16s 10s 16 22 mph 1014.9mb 62f 61f
11:50 8.5ft 16s 10s 13 18 mph 1016.2mb 62f 61f
10:50 9ft 16s 11s 4 7 mph 1017.2mb 62f 63f
9:50 8ft 17s 11s 4 7 mph 1017.4mb 62f 63f
8:50 8.5ft 16s 10s 7 9 mph 1017.3mb 61f 63f
7:50 9ft 17s 10s 7 9 mph 1016.9mb 61f 63f
6:50 8ft 16s 10s 7 9 mph 1016.9mb 61f 62f
5:50 8ft 17s 9s 4 7 mph 1017.1mb 61f 62f
4:50 8ft 17s 9s 4 7 mph 1016.9mb 62f 62f
3:50 8.5ft 17s 10s 4
mph
1016.8mb 62f 62f
2:50 8.5ft 17s 10s 7 9 mph 1017mb 62f 62f
1:50 8ft 12s 9s 4 7 mph 1017.5mb 62f 62f
12:50 8ft 17s 9s 7
mph
1016.7mb 62f 63f
mar 12/23 11:50 9.5ft 16s 10s 4 7 mph 1017.3mb 62f 62f
10:50 9ft 12s 9s 4 7 mph 1017.7mb 62f 62f
9:50 8.5ft 13s 9s 7 9 mph 1017.5mb 62f 62f
8:50 9ft 13s 9s 11 16 mph 1017.6mb 62f 62f
7:50 8.5ft 19s 9s 13 16 mph 1017.2mb 62f 63f
6:50 8ft 14s 9s 13 18 mph 1017.3mb 62f 63f
5:50 7.5ft 14s 9s 13 16 mph 1017mb 63f 64f
4:50 8ft 13s 9s 7 9 mph 1016.7mb 63f 64f
3:50 8ft 12s 9s 7 9 mph 1016.5mb 63f 64f
2:50 8.5ft 13s 9s 9 11 mph 1016.3mb 63f 64f
1:50 8.5ft 14s 8s 7 9 mph 1016.3mb 63f 64f
12:50 9.5ft 15s 9s 4 9 mph 1016.7mb 63f 64f
11:50 9ft 15s 9s 2 4 mph 1017.7mb 63f 64f
10:50 9ft 14s 9s 7 9 mph 1018.2mb 62f 64f
9:50 9ft 14s 9s 9 11 mph 1018.1mb 62f 65f
8:50 9.5ft 14s 9s 7 11 mph 1017.6mb 62f 65f
7:50 8ft 14s 8s 7 9 mph 1016.9mb 62f 65f
6:50 9.5ft 13s 9s 11 13 mph 1016.5mb 62f 64f
5:50 10ft 14s 9s 4
mph
1016.1mb 62f 64f
4:50 9.5ft 13s 9s 9 11 mph 1015.7mb 62f 64f
3:50 9.5ft 13s 8s 9 13 mph 1015.9mb 62f 64f
2:50 10ft 14s 8s 11 13 mph 1015.9mb 62f 65f
1:50 10ft 14s 8s 13 16 mph 1016.1mb 62f 65f
12:50 11ft 14s 9s 18 20 mph 1015.9mb 62f 65f
lun 12/22 11:50 10ft 13s 8s 13 18 mph 1016.1mb 62f 64f
10:50 10ft 13s 8s 25 29 mph 1015.7mb 62f 64f
9:50 11ft 14s 7s 27 31 mph 1015.4mb 62f 64f
8:50 9.5ft 13s 7s 31 36 mph 1014.7mb 62f 64f
7:50 9.5ft 13s 7s 29 36 mph 1015mb 62f 64f
6:50 10ft 14s 7s 34 40 mph 1014mb 62f 64f
5:50 10.5ft 12s 7s 34 43 mph 1013.8mb 62f 64f
4:50 10ft 13s 7s 36 43 mph 1014mb 62f 63f
3:50 9ft 12s 7s 29 36 mph 1014.5mb 62f 65f
2:50 10ft 13s 8s 29 34 mph 1014.1mb 62f 66f
1:50 10.5ft 14s 8s 22 27 mph 1015mb 62f 66f
12:50 10.5ft 14s 8s 20 27 mph 1015.6mb 62f 66f
11:50 11.5ft 14s 8s 22 29 mph 1016.9mb 62f 65f
10:50 11ft 14s 8s 27 34 mph 1018mb 62f 65f
9:50 12ft 14s 8s 22 29 mph 1018.3mb 62f 65f
8:50 11ft 14s 8s 25 29 mph 1017.5mb 62f 65f
7:50 11.5ft 13s 8s 22 27 mph 1017.6mb 62f 65f
6:50 11ft 14s 8s 27 34 mph 1017.2mb 62f 65f
5:50 11ft 14s 8s 20 27 mph 1017.2mb 62f 65f
4:50 11.5ft 14s 8s 25 31 mph 1016.9mb 62f 65f
3:50 11ft 14s 8s 29 34 mph 1016.6mb 62f 64f
2:50 12ft 15s 8s 29 34 mph 1016.8mb 62f 65f
1:50 12ft 14s 8s 27 31 mph 1017.6mb 62f 65f
12:50 11ft 15s 8s 18 22 mph 1018.5mb 63f 65f
dom 12/21 11:50 11ft 14s 8s 11 18 mph 1019.6mb 63f 65f
10:50 10.5ft 15s 8s 29 34 mph 1018.4mb 63f 65f
9:50 10ft 14s 8s 20 27 mph 1019.7mb 63f 66f
8:50 10.5ft 13s 8s 34 40 mph 1018.8mb 63f 66f